sensor_id;sensor_type;location;lat;lon;timestamp;temperature;humidity
13944;DHT22;7044;53.286;8.534;2023-07-20T00:00:06;14.90;99.90
13944;DHT22;7044;53.286;8.534;2023-07-20T00:02:35;14.90;99.90
13944;DHT22;7044;53.286;8.534;2023-07-20T00:05:02;14.80;99.90
13944;DHT22;7044;53.286;8.534;2023-07-20T00:07:29;14.80;99.90
13944;DHT22;7044;53.286;8.534;2023-07-20T00:09:56;14.80;99.90
13944;DHT22;7044;53.286;8.534;2023-07-20T00:12:23;14.80;99.90
13944;DHT22;7044;53.286;8.534;2023-07-20T00:14:51;14.80;99.90
13944;DHT22;7044;53.286;8.534;2023-07-20T00:17:19;14.80;99.90
13944;DHT22;7044;53.286;8.534;2023-07-20T00:22:14;14.80;99.90
13944;DHT22;7044;53.286;8.534;2023-07-20T00:24:41;14.80;99.90
13944;DHT22;7044;53.286;8.534;2023-07-20T00:27:08;14.80;99.90
13944;DHT22;7044;53.286;8.534;2023-07-20T00:29:35;15.60;99.90
13944;DHT22;7044;53.286;8.534;2023-07-20T00:32:02;14.90;99.90
13944;DHT22;7044;53.286;8.534;2023-07-20T00:34:30;14.80;99.90
13944;DHT22;7044;53.286;8.534;2023-07-20T00:36:59;15.00;99.90
13944;DHT22;7044;53.286;8.534;2023-07-20T00:39:26;15.10;99.90
13944;DHT22;7044;53.286;8.534;2023-07-20T00:41:52;15.00;99.90
13944;DHT22;7044;53.286;8.534;2023-07-20T00:44:19;15.00;99.90
13944;DHT22;7044;53.286;8.534;2023-07-20T00:46:46;15.00;99.90
13944;DHT22;7044;53.286;8.534;2023-07-20T00:49:13;14.90;99.90
13944;DHT22;7044;53.286;8.534;2023-07-20T00:51:41;14.90;99.90
13944;DHT22;7044;53.286;8.534;2023-07-20T00:54:09;14.90;99.90
13944;DHT22;7044;53.286;8.534;2023-07-20T00:56:36;14.90;99.90
13944;DHT22;7044;53.286;8.534;2023-07-20T00:59:03;14.90;99.90
13944;DHT22;7044;53.286;8.534;2023-07-20T01:01:30;14.90;99.90
13944;DHT22;7044;53.286;8.534;2023-07-20T01:03:57;14.90;99.90
13944;DHT22;7044;53.286;8.534;2023-07-20T01:06:29;15.00;99.90
13944;DHT22;7044;53.286;8.534;2023-07-20T01:09:05;15.00;99.90
13944;DHT22;7044;53.286;8.534;2023-07-20T01:11:40;14.90;99.90
13944;DHT22;7044;53.286;8.534;2023-07-20T01:14:08;14.90;99.90
13944;DHT22;7044;53.286;8.534;2023-07-20T01:16:35;14.90;99.90
13944;DHT22;7044;53.286;8.534;2023-07-20T01:19:02;14.90;99.90
13944;DHT22;7044;53.286;8.534;2023-07-20T01:21:34;15.10;99.90
13944;DHT22;7044;53.286;8.534;2023-07-20T01:30:13;14.80;99.90
13944;DHT22;7044;53.286;8.534;2023-07-20T01:32:43;14.80;99.90
13944;DHT22;7044;53.286;8.534;2023-07-20T01:35:13;14.80;99.90
13944;DHT22;7044;53.286;8.534;2023-07-20T01:37:42;14.80;99.90
13944;DHT22;7044;53.286;8.534;2023-07-20T01:40:13;14.80;99.90
13944;DHT22;7044;53.286;8.534;2023-07-20T01:42:44;14.80;99.90
13944;DHT22;7044;53.286;8.534;2023-07-20T01:45:11;15.00;99.90
13944;DHT22;7044;53.286;8.534;2023-07-20T01:47:38;14.70;99.90
13944;DHT22;7044;53.286;8.534;2023-07-20T01:50:07;14.80;99.90
13944;DHT22;7044;53.286;8.534;2023-07-20T01:52:34;14.80;99.90
13944;DHT22;7044;53.286;8.534;2023-07-20T01:55:01;14.80;99.90
13944;DHT22;7044;53.286;8.534;2023-07-20T01:57:29;14.80;99.90
13944;DHT22;7044;53.286;8.534;2023-07-20T01:59:56;14.80;99.90
13944;DHT22;7044;53.286;8.534;2023-07-20T02:02:26;14.80;99.90
13944;DHT22;7044;53.286;8.534;2023-07-20T02:04:53;14.80;99.90
13944;DHT22;7044;53.286;8.534;2023-07-20T02:07:21;14.90;99.90
13944;DHT22;7044;53.286;8.534;2023-07-20T02:09:48;14.90;99.90
13944;DHT22;7044;53.286;8.534;2023-07-20T02:12:15;14.80;99.90
13944;DHT22;7044;53.286;8.534;2023-07-20T02:14:42;14.90;99.90
13944;DHT22;7044;53.286;8.534;2023-07-20T02:19:37;14.90;99.90
13944;DHT22;7044;53.286;8.534;2023-07-20T02:22:04;14.80;99.90
13944;DHT22;7044;53.286;8.534;2023-07-20T02:24:33;14.80;99.90
13944;DHT22;7044;53.286;8.534;2023-07-20T02:27:00;14.80;99.90
13944;DHT22;7044;53.286;8.534;2023-07-20T02:29:27;14.90;99.90
13944;DHT22;7044;53.286;8.534;2023-07-20T02:31:53;14.80;99.90
13944;DHT22;7044;53.286;8.534;2023-07-20T02:36:47;14.80;99.90
13944;DHT22;7044;53.286;8.534;2023-07-20T02:39:14;14.80;99.90
13944;DHT22;7044;53.286;8.534;2023-07-20T02:41:42;14.80;99.90
13944;DHT22;7044;53.286;8.534;2023-07-20T02:44:09;14.80;99.90
13944;DHT22;7044;53.286;8.534;2023-07-20T02:46:36;14.80;99.90
13944;DHT22;7044;53.286;8.534;2023-07-20T02:49:03;14.80;99.90
13944;DHT22;7044;53.286;8.534;2023-07-20T02:51:30;14.80;99.90
13944;DHT22;7044;53.286;8.534;2023-07-20T02:53:57;14.90;99.90
13944;DHT22;7044;53.286;8.534;2023-07-20T02:56:24;15.50;99.90
13944;DHT22;7044;53.286;8.534;2023-07-20T02:58:52;14.80;99.90
13944;DHT22;7044;53.286;8.534;2023-07-20T03:01:19;14.80;99.90
13944;DHT22;7044;53.286;8.534;2023-07-20T03:03:46;14.80;99.90
13944;DHT22;7044;53.286;8.534;2023-07-20T03:06:14;14.80;99.90
13944;DHT22;7044;53.286;8.534;2023-07-20T03:11:12;14.70;99.90
13944;DHT22;7044;53.286;8.534;2023-07-20T03:13:39;15.00;99.90
13944;DHT22;7044;53.286;8.534;2023-07-20T03:16:08;14.70;99.90
13944;DHT22;7044;53.286;8.534;2023-07-20T03:18:36;14.70;99.90
13944;DHT22;7044;53.286;8.534;2023-07-20T03:21:03;14.70;99.90
13944;DHT22;7044;53.286;8.534;2023-07-20T03:23:30;14.60;99.90
13944;DHT22;7044;53.286;8.534;2023-07-20T03:25:57;14.60;99.90
13944;DHT22;7044;53.286;8.534;2023-07-20T03:30:53;14.50;99.90
13944;DHT22;7044;53.286;8.534;2023-07-20T03:33:24;14.70;99.90
13944;DHT22;7044;53.286;8.534;2023-07-20T03:35:52;14.60;99.90
13944;DHT22;7044;53.286;8.534;2023-07-20T03:38:19;14.50;99.90
13944;DHT22;7044;53.286;8.534;2023-07-20T03:40:50;14.60;99.90
13944;DHT22;7044;53.286;8.534;2023-07-20T03:43:17;14.50;99.90
13944;DHT22;7044;53.286;8.534;2023-07-20T03:45:44;14.60;99.90
13944;DHT22;7044;53.286;8.534;2023-07-20T03:48:13;14.60;99.90
13944;DHT22;7044;53.286;8.534;2023-07-20T03:53:09;14.40;99.90
13944;DHT22;7044;53.286;8.534;2023-07-20T03:58:03;14.30;99.90
13944;DHT22;7044;53.286;8.534;2023-07-20T04:00:30;14.40;99.90
13944;DHT22;7044;53.286;8.534;2023-07-20T04:05:24;14.30;99.90
13944;DHT22;7044;53.286;8.534;2023-07-20T04:07:53;14.40;99.90
13944;DHT22;7044;53.286;8.534;2023-07-20T04:10:20;14.40;99.90
13944;DHT22;7044;53.286;8.534;2023-07-20T04:12:46;14.40;99.90
13944;DHT22;7044;53.286;8.534;2023-07-20T04:15:14;14.90;99.90
13944;DHT22;7044;53.286;8.534;2023-07-20T04:17:41;14.30;99.90
13944;DHT22;7044;53.286;8.534;2023-07-20T04:20:08;14.40;99.90
13944;DHT22;7044;53.286;8.534;2023-07-20T04:22:35;14.40;99.90
13944;DHT22;7044;53.286;8.534;2023-07-20T04:25:04;14.40;99.90
13944;DHT22;7044;53.286;8.534;2023-07-20T04:27:31;14.40;99.90
13944;DHT22;7044;53.286;8.534;2023-07-20T04:29:58;14.40;99.90
13944;DHT22;7044;53.286;8.534;2023-07-20T04:32:26;14.40;99.90
13944;DHT22;7044;53.286;8.534;2023-07-20T04:34:53;14.20;99.90
13944;DHT22;7044;53.286;8.534;2023-07-20T04:37:20;14.40;99.90
13944;DHT22;7044;53.286;8.534;2023-07-20T04:39:47;14.40;99.90
13944;DHT22;7044;53.286;8.534;2023-07-20T04:42:15;14.40;99.90
13944;DHT22;7044;53.286;8.534;2023-07-20T04:44:42;15.00;99.90
13944;DHT22;7044;53.286;8.534;2023-07-20T04:47:09;14.50;99.90
13944;DHT22;7044;53.286;8.534;2023-07-20T04:49:36;14.50;99.90
13944;DHT22;7044;53.286;8.534;2023-07-20T04:52:03;14.50;99.90
13944;DHT22;7044;53.286;8.534;2023-07-20T04:54:30;14.50;99.90
13944;DHT22;7044;53.286;8.534;2023-07-20T04:56:57;14.60;99.90
13944;DHT22;7044;53.286;8.534;2023-07-20T05:01:52;14.60;99.90
13944;DHT22;7044;53.286;8.534;2023-07-20T05:04:19;14.60;99.90
13944;DHT22;7044;53.286;8.534;2023-07-20T05:06:46;14.70;99.90
13944;DHT22;7044;53.286;8.534;2023-07-20T05:09:13;14.60;99.90
13944;DHT22;7044;53.286;8.534;2023-07-20T05:11:40;14.70;99.90
13944;DHT22;7044;53.286;8.534;2023-07-20T05:14:07;14.70;99.90
13944;DHT22;7044;53.286;8.534;2023-07-20T05:16:35;14.70;99.90
13944;DHT22;7044;53.286;8.534;2023-07-20T05:19:02;14.80;99.90
13944;DHT22;7044;53.286;8.534;2023-07-20T05:21:29;14.80;99.90
13944;DHT22;7044;53.286;8.534;2023-07-20T05:23:56;14.80;99.90
13944;DHT22;7044;53.286;8.534;2023-07-20T05:26:23;14.80;99.90
13944;DHT22;7044;53.286;8.534;2023-07-20T05:28:50;14.90;99.90
13944;DHT22;7044;53.286;8.534;2023-07-20T05:31:17;14.80;99.90
13944;DHT22;7044;53.286;8.534;2023-07-20T05:33:45;14.80;99.90
13944;DHT22;7044;53.286;8.534;2023-07-20T05:36:12;14.90;99.90
13944;DHT22;7044;53.286;8.534;2023-07-20T05:38:39;14.90;99.90
13944;DHT22;7044;53.286;8.534;2023-07-20T05:41:06;14.70;99.90
13944;DHT22;7044;53.286;8.534;2023-07-20T05:43:36;14.50;99.90
13944;DHT22;7044;53.286;8.534;2023-07-20T05:46:03;14.50;99.90
13944;DHT22;7044;53.286;8.534;2023-07-20T05:48:30;14.50;99.90
13944;DHT22;7044;53.286;8.534;2023-07-20T05:50:59;14.50;99.90
13944;DHT22;7044;53.286;8.534;2023-07-20T05:53:26;14.70;99.90
13944;DHT22;7044;53.286;8.534;2023-07-20T05:55:53;14.60;99.90
13944;DHT22;7044;53.286;8.534;2023-07-20T05:58:20;14.60;99.90
13944;DHT22;7044;53.286;8.534;2023-07-20T06:00:48;14.60;99.90
13944;DHT22;7044;53.286;8.534;2023-07-20T06:03:16;14.70;99.90
13944;DHT22;7044;53.286;8.534;2023-07-20T06:05:43;14.50;99.90
13944;DHT22;7044;53.286;8.534;2023-07-20T06:08:11;14.60;99.90
13944;DHT22;7044;53.286;8.534;2023-07-20T06:10:38;14.60;99.90
13944;DHT22;7044;53.286;8.534;2023-07-20T06:13:05;14.60;99.90
13944;DHT22;7044;53.286;8.534;2023-07-20T06:15:33;14.70;99.90
13944;DHT22;7044;53.286;8.534;2023-07-20T06:18:01;14.70;99.90
13944;DHT22;7044;53.286;8.534;2023-07-20T06:20:29;14.70;99.90
13944;DHT22;7044;53.286;8.534;2023-07-20T06:22:57;14.70;99.90
13944;DHT22;7044;53.286;8.534;2023-07-20T06:25:25;14.80;99.90
13944;DHT22;7044;53.286;8.534;2023-07-20T06:27:52;14.80;99.90
13944;DHT22;7044;53.286;8.534;2023-07-20T06:30:19;14.90;99.90
13944;DHT22;7044;53.286;8.534;2023-07-20T06:32:46;14.90;99.90
13944;DHT22;7044;53.286;8.534;2023-07-20T06:35:13;15.00;99.90
13944;DHT22;7044;53.286;8.534;2023-07-20T06:37:41;15.00;99.90
13944;DHT22;7044;53.286;8.534;2023-07-20T06:40:08;15.20;99.90
13944;DHT22;7044;53.286;8.534;2023-07-20T06:42:37;15.20;99.90
13944;DHT22;7044;53.286;8.534;2023-07-20T06:45:04;15.30;99.90
13944;DHT22;7044;53.286;8.534;2023-07-20T06:47:31;15.30;99.90
13944;DHT22;7044;53.286;8.534;2023-07-20T06:49:58;15.30;99.90
13944;DHT22;7044;53.286;8.534;2023-07-20T06:52:25;15.40;99.90
13944;DHT22;7044;53.286;8.534;2023-07-20T06:54:52;15.40;99.90
13944;DHT22;7044;53.286;8.534;2023-07-20T06:57:19;15.50;99.90
13944;DHT22;7044;53.286;8.534;2023-07-20T07:02:14;15.60;99.90
13944;DHT22;7044;53.286;8.534;2023-07-20T07:04:41;15.70;99.90
13944;DHT22;7044;53.286;8.534;2023-07-20T07:07:08;15.80;99.90
13944;DHT22;7044;53.286;8.534;2023-07-20T07:09:35;15.80;99.90
13944;DHT22;7044;53.286;8.534;2023-07-20T07:12:02;15.90;99.90
13944;DHT22;7044;53.286;8.534;2023-07-20T07:14:29;15.90;99.90
13944;DHT22;7044;53.286;8.534;2023-07-20T07:16:57;16.00;99.90
13944;DHT22;7044;53.286;8.534;2023-07-20T07:19:24;16.10;99.90
13944;DHT22;7044;53.286;8.534;2023-07-20T07:21:51;16.10;99.90
13944;DHT22;7044;53.286;8.534;2023-07-20T07:24:18;16.10;99.90
13944;DHT22;7044;53.286;8.534;2023-07-20T07:26:45;16.20;99.90
13944;DHT22;7044;53.286;8.534;2023-07-20T07:29:12;16.30;99.90
13944;DHT22;7044;53.286;8.534;2023-07-20T07:31:39;16.30;99.90
13944;DHT22;7044;53.286;8.534;2023-07-20T07:34:07;16.40;99.90
13944;DHT22;7044;53.286;8.534;2023-07-20T07:36:34;16.40;99.90
13944;DHT22;7044;53.286;8.534;2023-07-20T07:39:01;16.40;99.90
13944;DHT22;7044;53.286;8.534;2023-07-20T07:41:28;16.50;99.90
13944;DHT22;7044;53.286;8.534;2023-07-20T07:43:55;16.50;99.90
13944;DHT22;7044;53.286;8.534;2023-07-20T07:46:22;16.60;99.90
13944;DHT22;7044;53.286;8.534;2023-07-20T07:48:49;16.40;99.90
13944;DHT22;7044;53.286;8.534;2023-07-20T07:51:17;16.50;99.90
13944;DHT22;7044;53.286;8.534;2023-07-20T07:53:45;16.50;99.90
13944;DHT22;7044;53.286;8.534;2023-07-20T07:56:12;16.40;99.90
13944;DHT22;7044;53.286;8.534;2023-07-20T07:58:39;16.50;99.90
13944;DHT22;7044;53.286;8.534;2023-07-20T08:01:06;16.50;99.90
13944;DHT22;7044;53.286;8.534;2023-07-20T08:03:32;16.50;99.90
13944;DHT22;7044;53.286;8.534;2023-07-20T08:06:01;16.50;99.90
13944;DHT22;7044;53.286;8.534;2023-07-20T08:08:31;16.80;99.90
13944;DHT22;7044;53.286;8.534;2023-07-20T08:10:58;16.80;99.90
13944;DHT22;7044;53.286;8.534;2023-07-20T08:13:25;16.90;99.90
13944;DHT22;7044;53.286;8.534;2023-07-20T08:15:52;16.90;99.90
13944;DHT22;7044;53.286;8.534;2023-07-20T08:18:19;17.00;99.90
13944;DHT22;7044;53.286;8.534;2023-07-20T08:20:47;17.00;99.90
13944;DHT22;7044;53.286;8.534;2023-07-20T08:23:15;17.00;99.90
13944;DHT22;7044;53.286;8.534;2023-07-20T08:25:43;17.00;99.90
13944;DHT22;7044;53.286;8.534;2023-07-20T08:28:11;17.00;99.90
13944;DHT22;7044;53.286;8.534;2023-07-20T08:30:41;17.10;99.90
13944;DHT22;7044;53.286;8.534;2023-07-20T08:33:09;17.10;99.90
13944;DHT22;7044;53.286;8.534;2023-07-20T08:35:36;17.10;99.90
13944;DHT22;7044;53.286;8.534;2023-07-20T08:38:03;17.00;99.90
13944;DHT22;7044;53.286;8.534;2023-07-20T08:40:31;17.10;99.90
13944;DHT22;7044;53.286;8.534;2023-07-20T08:43:00;17.20;99.90
13944;DHT22;7044;53.286;8.534;2023-07-20T08:45:27;17.40;99.90
13944;DHT22;7044;53.286;8.534;2023-07-20T08:47:56;17.40;99.90
13944;DHT22;7044;53.286;8.534;2023-07-20T08:50:25;17.40;99.90
13944;DHT22;7044;53.286;8.534;2023-07-20T08:52:56;17.50;99.90
13944;DHT22;7044;53.286;8.534;2023-07-20T08:55:23;17.60;99.90
13944;DHT22;7044;53.286;8.534;2023-07-20T08:57:52;17.70;99.90
13944;DHT22;7044;53.286;8.534;2023-07-20T09:00:23;17.60;99.90
13944;DHT22;7044;53.286;8.534;2023-07-20T09:02:53;17.50;99.90
13944;DHT22;7044;53.286;8.534;2023-07-20T09:05:21;17.30;99.90
13944;DHT22;7044;53.286;8.534;2023-07-20T09:07:49;17.30;99.90
13944;DHT22;7044;53.286;8.534;2023-07-20T09:10:16;17.30;99.90
13944;DHT22;7044;53.286;8.534;2023-07-20T09:12:43;17.40;99.90
13944;DHT22;7044;53.286;8.534;2023-07-20T09:15:11;17.30;99.90
13944;DHT22;7044;53.286;8.534;2023-07-20T09:17:45;17.20;99.90
13944;DHT22;7044;53.286;8.534;2023-07-20T09:20:12;17.10;99.90
13944;DHT22;7044;53.286;8.534;2023-07-20T09:22:42;17.00;99.90
13944;DHT22;7044;53.286;8.534;2023-07-20T09:25:11;17.00;99.90
13944;DHT22;7044;53.286;8.534;2023-07-20T09:27:40;17.00;99.90
13944;DHT22;7044;53.286;8.534;2023-07-20T09:30:08;17.10;99.90
13944;DHT22;7044;53.286;8.534;2023-07-20T09:32:42;17.20;99.90
13944;DHT22;7044;53.286;8.534;2023-07-20T09:35:15;17.30;99.90
13944;DHT22;7044;53.286;8.534;2023-07-20T09:37:46;17.40;99.90
13944;DHT22;7044;53.286;8.534;2023-07-20T09:40:17;17.40;99.90
13944;DHT22;7044;53.286;8.534;2023-07-20T09:42:44;17.50;99.90
13944;DHT22;7044;53.286;8.534;2023-07-20T09:45:11;17.60;99.90
13944;DHT22;7044;53.286;8.534;2023-07-20T09:47:38;17.70;99.90
13944;DHT22;7044;53.286;8.534;2023-07-20T09:50:08;17.70;99.90
13944;DHT22;7044;53.286;8.534;2023-07-20T09:52:41;17.90;99.90
13944;DHT22;7044;53.286;8.534;2023-07-20T09:55:10;18.00;99.90
13944;DHT22;7044;53.286;8.534;2023-07-20T09:57:38;18.10;99.90
13944;DHT22;7044;53.286;8.534;2023-07-20T10:00:07;18.30;99.90
13944;DHT22;7044;53.286;8.534;2023-07-20T10:02:42;18.40;99.90
13944;DHT22;7044;53.286;8.534;2023-07-20T10:05:12;18.30;99.90
13944;DHT22;7044;53.286;8.534;2023-07-20T10:07:43;18.40;99.90
13944;DHT22;7044;53.286;8.534;2023-07-20T10:10:14;18.70;99.90
13944;DHT22;7044;53.286;8.534;2023-07-20T10:12:43;18.70;99.90
13944;DHT22;7044;53.286;8.534;2023-07-20T10:15:13;18.90;99.90
13944;DHT22;7044;53.286;8.534;2023-07-20T10:17:51;18.80;99.90
13944;DHT22;7044;53.286;8.534;2023-07-20T10:20:21;18.80;99.90
13944;DHT22;7044;53.286;8.534;2023-07-20T10:22:49;18.60;99.90
13944;DHT22;7044;53.286;8.534;2023-07-20T10:25:18;18.60;99.90
13944;DHT22;7044;53.286;8.534;2023-07-20T10:27:47;18.60;99.90
13944;DHT22;7044;53.286;8.534;2023-07-20T10:30:14;18.60;99.90
13944;DHT22;7044;53.286;8.534;2023-07-20T10:32:42;18.30;99.90
13944;DHT22;7044;53.286;8.534;2023-07-20T10:35:13;18.10;99.90
13944;DHT22;7044;53.286;8.534;2023-07-20T10:37:50;18.30;99.90
13944;DHT22;7044;53.286;8.534;2023-07-20T10:40:28;18.40;99.90
13944;DHT22;7044;53.286;8.534;2023-07-20T10:43:00;18.50;99.90
13944;DHT22;7044;53.286;8.534;2023-07-20T10:45:50;18.60;99.90
13944;DHT22;7044;53.286;8.534;2023-07-20T10:48:19;18.70;99.90
13944;DHT22;7044;53.286;8.534;2023-07-20T10:51:08;18.60;99.90
13944;DHT22;7044;53.286;8.534;2023-07-20T10:53:36;18.40;99.90
13944;DHT22;7044;53.286;8.534;2023-07-20T10:56:07;18.30;99.90
13944;DHT22;7044;53.286;8.534;2023-07-20T10:58:34;18.00;99.90
13944;DHT22;7044;53.286;8.534;2023-07-20T11:01:03;17.70;99.90
13944;DHT22;7044;53.286;8.534;2023-07-20T11:03:35;17.30;99.90
13944;DHT22;7044;53.286;8.534;2023-07-20T11:06:29;17.20;99.90
13944;DHT22;7044;53.286;8.534;2023-07-20T11:09:05;17.10;99.90
13944;DHT22;7044;53.286;8.534;2023-07-20T11:11:34;17.20;99.90
13944;DHT22;7044;53.286;8.534;2023-07-20T11:14:02;17.40;99.90
13944;DHT22;7044;53.286;8.534;2023-07-20T11:16:34;17.60;99.90
13944;DHT22;7044;53.286;8.534;2023-07-20T11:19:02;18.00;99.90
13944;DHT22;7044;53.286;8.534;2023-07-20T11:21:30;18.20;99.90
13944;DHT22;7044;53.286;8.534;2023-07-20T11:24:05;18.30;99.90
13944;DHT22;7044;53.286;8.534;2023-07-20T11:26:40;18.50;99.90
13944;DHT22;7044;53.286;8.534;2023-07-20T11:29:07;18.60;99.90
13944;DHT22;7044;53.286;8.534;2023-07-20T11:31:36;18.50;99.90
13944;DHT22;7044;53.286;8.534;2023-07-20T11:34:02;18.00;99.90
13944;DHT22;7044;53.286;8.534;2023-07-20T11:36:29;17.80;99.90
13944;DHT22;7044;53.286;8.534;2023-07-20T11:38:57;17.60;99.90
13944;DHT22;7044;53.286;8.534;2023-07-20T11:43:54;17.20;99.90
13944;DHT22;7044;53.286;8.534;2023-07-20T11:46:21;17.00;99.90
13944;DHT22;7044;53.286;8.534;2023-07-20T11:51:15;16.90;99.90
13944;DHT22;7044;53.286;8.534;2023-07-20T11:53:44;17.00;99.90
13944;DHT22;7044;53.286;8.534;2023-07-20T11:56:12;17.10;99.90
13944;DHT22;7044;53.286;8.534;2023-07-20T11:58:43;17.20;99.90
13944;DHT22;7044;53.286;8.534;2023-07-20T12:01:12;17.30;99.90
13944;DHT22;7044;53.286;8.534;2023-07-20T12:03:39;17.20;99.90
13944;DHT22;7044;53.286;8.534;2023-07-20T12:06:07;17.40;99.90
13944;DHT22;7044;53.286;8.534;2023-07-20T12:08:34;17.60;99.90
13944;DHT22;7044;53.286;8.534;2023-07-20T12:11:01;17.80;99.90
13944;DHT22;7044;53.286;8.534;2023-07-20T12:13:36;17.90;99.90
13944;DHT22;7044;53.286;8.534;2023-07-20T12:16:09;17.90;99.90
13944;DHT22;7044;53.286;8.534;2023-07-20T12:18:37;17.90;99.90
13944;DHT22;7044;53.286;8.534;2023-07-20T12:21:05;18.00;99.90
13944;DHT22;7044;53.286;8.534;2023-07-20T12:23:35;18.10;99.90
13944;DHT22;7044;53.286;8.534;2023-07-20T12:26:06;18.00;99.90
13944;DHT22;7044;53.286;8.534;2023-07-20T12:28:38;18.00;99.90
13944;DHT22;7044;53.286;8.534;2023-07-20T12:31:05;18.00;99.90
13944;DHT22;7044;53.286;8.534;2023-07-20T12:33:33;18.10;99.90
13944;DHT22;7044;53.286;8.534;2023-07-20T12:36:00;18.00;99.90
13944;DHT22;7044;53.286;8.534;2023-07-20T12:38:27;18.10;99.90
13944;DHT22;7044;53.286;8.534;2023-07-20T12:40:56;18.20;99.90
13944;DHT22;7044;53.286;8.534;2023-07-20T12:45:51;18.40;99.90
13944;DHT22;7044;53.286;8.534;2023-07-20T12:48:18;18.40;99.90
13944;DHT22;7044;53.286;8.534;2023-07-20T12:50:46;18.40;99.90
13944;DHT22;7044;53.286;8.534;2023-07-20T12:53:14;18.50;99.90
13944;DHT22;7044;53.286;8.534;2023-07-20T12:55:41;18.40;99.90
13944;DHT22;7044;53.286;8.534;2023-07-20T12:58:08;18.50;99.90
13944;DHT22;7044;53.286;8.534;2023-07-20T13:00:34;18.60;99.90
13944;DHT22;7044;53.286;8.534;2023-07-20T13:03:01;18.60;99.90
13944;DHT22;7044;53.286;8.534;2023-07-20T13:05:30;18.60;99.90
13944;DHT22;7044;53.286;8.534;2023-07-20T13:10:31;18.10;99.90
13944;DHT22;7044;53.286;8.534;2023-07-20T13:12:57;18.10;99.90
13944;DHT22;7044;53.286;8.534;2023-07-20T13:15:29;18.00;99.90
13944;DHT22;7044;53.286;8.534;2023-07-20T13:20:25;17.90;99.90
13944;DHT22;7044;53.286;8.534;2023-07-20T13:22:52;17.90;99.90
13944;DHT22;7044;53.286;8.534;2023-07-20T13:25:20;17.90;99.90
13944;DHT22;7044;53.286;8.534;2023-07-20T13:27:47;17.90;99.90
13944;DHT22;7044;53.286;8.534;2023-07-20T13:30:14;17.60;99.90
13944;DHT22;7044;53.286;8.534;2023-07-20T13:32:42;17.60;99.90
13944;DHT22;7044;53.286;8.534;2023-07-20T13:35:10;17.40;99.90
13944;DHT22;7044;53.286;8.534;2023-07-20T13:37:36;17.30;99.90
13944;DHT22;7044;53.286;8.534;2023-07-20T13:40:04;17.10;99.90
13944;DHT22;7044;53.286;8.534;2023-07-20T13:42:33;17.10;99.90
13944;DHT22;7044;53.286;8.534;2023-07-20T13:45:00;17.00;99.90
13944;DHT22;7044;53.286;8.534;2023-07-20T13:49:54;17.20;99.90
13944;DHT22;7044;53.286;8.534;2023-07-20T13:52:21;17.40;99.90
13944;DHT22;7044;53.286;8.534;2023-07-20T13:54:48;17.70;99.90
13944;DHT22;7044;53.286;8.534;2023-07-20T13:57:15;17.70;99.90
13944;DHT22;7044;53.286;8.534;2023-07-20T13:59:44;17.90;99.90
13944;DHT22;7044;53.286;8.534;2023-07-20T14:02:11;17.90;99.90
13944;DHT22;7044;53.286;8.534;2023-07-20T14:04:38;18.20;99.90
13944;DHT22;7044;53.286;8.534;2023-07-20T14:07:05;18.20;99.90
13944;DHT22;7044;53.286;8.534;2023-07-20T14:09:32;18.30;99.90
13944;DHT22;7044;53.286;8.534;2023-07-20T14:11:59;18.30;99.90
13944;DHT22;7044;53.286;8.534;2023-07-20T14:14:26;18.30;99.90
13944;DHT22;7044;53.286;8.534;2023-07-20T14:16:54;18.00;99.90
13944;DHT22;7044;53.286;8.534;2023-07-20T14:19:22;18.10;99.90
13944;DHT22;7044;53.286;8.534;2023-07-20T14:21:49;18.30;99.90
13944;DHT22;7044;53.286;8.534;2023-07-20T14:24:16;18.30;99.90
13944;DHT22;7044;53.286;8.534;2023-07-20T14:26:42;18.40;99.90
13944;DHT22;7044;53.286;8.534;2023-07-20T14:29:09;18.60;99.90
13944;DHT22;7044;53.286;8.534;2023-07-20T14:31:38;18.50;99.90
13944;DHT22;7044;53.286;8.534;2023-07-20T14:34:06;18.70;99.90
13944;DHT22;7044;53.286;8.534;2023-07-20T14:36:33;18.80;99.90
13944;DHT22;7044;53.286;8.534;2023-07-20T14:39:00;18.80;99.90
13944;DHT22;7044;53.286;8.534;2023-07-20T14:41:26;18.90;99.90
13944;DHT22;7044;53.286;8.534;2023-07-20T14:43:53;18.80;99.90
13944;DHT22;7044;53.286;8.534;2023-07-20T14:46:20;18.60;99.90
13944;DHT22;7044;53.286;8.534;2023-07-20T14:48:48;18.60;99.90
13944;DHT22;7044;53.286;8.534;2023-07-20T14:51:16;18.60;99.90
13944;DHT22;7044;53.286;8.534;2023-07-20T14:53:43;18.70;99.90
13944;DHT22;7044;53.286;8.534;2023-07-20T14:56:10;18.90;99.90
13944;DHT22;7044;53.286;8.534;2023-07-20T14:58:37;18.90;99.90
13944;DHT22;7044;53.286;8.534;2023-07-20T15:01:03;18.90;99.90
13944;DHT22;7044;53.286;8.534;2023-07-20T15:03:30;19.00;99.90
13944;DHT22;7044;53.286;8.534;2023-07-20T15:05:57;19.20;99.90
13944;DHT22;7044;53.286;8.534;2023-07-20T15:08:25;19.10;99.90
13944;DHT22;7044;53.286;8.534;2023-07-20T15:10:52;19.20;99.90
13944;DHT22;7044;53.286;8.534;2023-07-20T15:13:19;19.10;99.90
13944;DHT22;7044;53.286;8.534;2023-07-20T15:15:46;19.20;99.90
13944;DHT22;7044;53.286;8.534;2023-07-20T15:18:13;19.10;99.90
13944;DHT22;7044;53.286;8.534;2023-07-20T15:20:40;18.80;99.90
13944;DHT22;7044;53.286;8.534;2023-07-20T15:23:06;18.80;99.90
13944;DHT22;7044;53.286;8.534;2023-07-20T15:25:35;18.80;99.90
13944;DHT22;7044;53.286;8.534;2023-07-20T15:28:02;18.90;99.90
13944;DHT22;7044;53.286;8.534;2023-07-20T15:30:29;19.00;99.90
13944;DHT22;7044;53.286;8.534;2023-07-20T15:32:56;19.10;99.90
13944;DHT22;7044;53.286;8.534;2023-07-20T15:35:23;19.20;99.90
13944;DHT22;7044;53.286;8.534;2023-07-20T15:37:50;19.10;99.90
13944;DHT22;7044;53.286;8.534;2023-07-20T15:40:18;19.10;99.90
13944;DHT22;7044;53.286;8.534;2023-07-20T15:42:47;19.00;99.90
13944;DHT22;7044;53.286;8.534;2023-07-20T15:45:14;19.00;99.90
13944;DHT22;7044;53.286;8.534;2023-07-20T15:47:41;18.90;99.90
13944;DHT22;7044;53.286;8.534;2023-07-20T15:50:09;18.80;99.90
13944;DHT22;7044;53.286;8.534;2023-07-20T15:52:36;18.80;99.90
13944;DHT22;7044;53.286;8.534;2023-07-20T15:55:05;18.70;99.90
13944;DHT22;7044;53.286;8.534;2023-07-20T15:57:32;18.70;99.90
13944;DHT22;7044;53.286;8.534;2023-07-20T16:00:02;18.80;99.90
13944;DHT22;7044;53.286;8.534;2023-07-20T16:02:29;18.80;99.90
13944;DHT22;7044;53.286;8.534;2023-07-20T16:04:56;18.60;99.90
13944;DHT22;7044;53.286;8.534;2023-07-20T16:07:23;18.60;99.90
13944;DHT22;7044;53.286;8.534;2023-07-20T16:09:50;18.60;99.90
13944;DHT22;7044;53.286;8.534;2023-07-20T16:12:18;18.60;99.90
13944;DHT22;7044;53.286;8.534;2023-07-20T16:14:51;18.50;99.90
13944;DHT22;7044;53.286;8.534;2023-07-20T16:17:19;18.50;99.90
13944;DHT22;7044;53.286;8.534;2023-07-20T16:19:46;18.40;99.90
13944;DHT22;7044;53.286;8.534;2023-07-20T16:22:13;18.50;99.90
13944;DHT22;7044;53.286;8.534;2023-07-20T16:24:40;18.50;99.90
13944;DHT22;7044;53.286;8.534;2023-07-20T16:27:07;18.40;99.90
13944;DHT22;7044;53.286;8.534;2023-07-20T16:29:33;18.40;99.90
13944;DHT22;7044;53.286;8.534;2023-07-20T16:32:00;18.40;99.90
13944;DHT22;7044;53.286;8.534;2023-07-20T16:36:56;18.40;99.90